Time;durP1;ratioP1;P1;durP2;ratioP2;P2;SDS_P1;SDS_P2;PMS_P1;PMS_P2;Temp;Humidity;BMP_temperature;BMP_pressure;BME280_temperature;BME280_humidity;BME280_pressure;Samples;Min_cycle;Max_cycle;Signal;HPM_P1;HPM_P2
2022/05/02 00:00:25;;;;;;;4.83;2.37;;;9.90;99.90;;;;;;5018944;28;20382;-84
2022/05/02 00:02:54;;;;;;;3.00;2.20;;;9.90;99.90;;;;;;5022426;28;20214;-84
2022/05/02 00:05:20;;;;;;;4.47;2.27;;;9.90;99.90;;;;;;5047285;28;20191;-85
2022/05/02 00:07:48;;;;;;;2.87;2.50;;;10.00;99.90;;;;;;5020822;28;20567;-84
2022/05/02 00:10:15;;;;;;;3.10;2.73;;;10.00;99.90;;;;;;5026104;28;20303;-84
2022/05/02 00:12:43;;;;;;;2.90;2.63;;;9.90;99.90;;;;;;5007957;28;20207;-84
2022/05/02 00:15:12;;;;;;;2.77;2.37;;;9.90;99.90;;;;;;4997725;28;20224;-85
2022/05/02 00:17:57;;;;;;;3.37;2.23;;;10.00;99.90;;;;;;5009041;28;20196;-85
2022/05/02 00:20:27;;;;;;;2.90;2.53;;;10.00;99.90;;;;;;5034806;28;20199;-85
2022/05/02 00:22:54;;;;;;;3.03;2.73;;;10.00;99.90;;;;;;5003000;28;20208;-85
2022/05/02 00:25:21;;;;;;;4.93;2.20;;;9.90;99.90;;;;;;5018490;28;20204;-84
2022/05/02 00:27:49;;;;;;;2.60;2.20;;;9.90;99.90;;;;;;5009099;28;20214;-84
2022/05/02 00:30:16;;;;;;;2.97;2.77;;;9.80;99.90;;;;;;5013952;28;20211;-84
2022/05/02 00:32:44;;;;;;;3.07;2.77;;;9.80;99.90;;;;;;5000735;28;20212;-85
2022/05/02 00:35:11;;;;;;;3.07;2.20;;;9.70;99.90;;;;;;5042323;28;20810;-85
2022/05/02 00:37:40;;;;;;;2.47;2.03;;;9.70;99.90;;;;;;5030181;28;20207;-84
2022/05/02 00:40:09;;;;;;;4.40;2.40;;;9.70;99.90;;;;;;5023905;28;20199;-85
2022/05/02 00:42:36;;;;;;;2.93;2.10;;;9.70;99.90;;;;;;5012753;28;20208;-85
2022/05/02 00:45:06;;;;;;;3.13;2.00;;;9.70;99.90;;;;;;5011572;28;20864;-84
2022/05/02 00:47:33;;;;;;;1.93;1.80;;;9.70;99.90;;;;;;5035581;28;20207;-84
2022/05/02 00:50:00;;;;;;;3.90;2.30;;;9.70;99.90;;;;;;5027430;28;20417;-84
2022/05/02 00:52:27;;;;;;;2.47;2.27;;;9.70;99.90;;;;;;5030747;28;20271;-84
2022/05/02 00:54:55;;;;;;;3.60;2.03;;;9.60;99.90;;;;;;5002886;28;20247;-83
2022/05/02 00:57:23;;;;;;;2.23;2.00;;;9.40;99.90;;;;;;5013822;28;20204;-84
2022/05/02 00:59:50;;;;;;;4.17;2.10;;;9.30;99.90;;;;;;5027695;28;20196;-84
2022/05/02 01:02:17;;;;;;;3.77;2.10;;;9.20;99.90;;;;;;5019767;28;20204;-85
2022/05/02 01:04:44;;;;;;;2.13;2.00;;;9.20;99.90;;;;;;5011023;28;20223;-84
2022/05/02 01:07:11;;;;;;;2.57;2.10;;;9.20;99.90;;;;;;5018561;28;20287;-84
2022/05/02 01:09:41;;;;;;;2.10;1.80;;;9.20;99.90;;;;;;5026954;28;20188;-85
2022/05/02 01:12:12;;;;;;;3.10;2.10;;;9.20;99.90;;;;;;5025842;28;20424;-84
2022/05/02 01:14:40;;;;;;;2.30;2.13;;;9.00;99.90;;;;;;5028740;28;20232;-84
2022/05/02 01:17:07;;;;;;;2.30;1.83;;;8.90;99.90;;;;;;4998882;28;20278;-85
2022/05/02 01:19:35;;;;;;;2.50;2.30;;;8.80;99.90;;;;;;5027542;28;20212;-84
2022/05/02 01:22:05;;;;;;;2.30;2.07;;;8.70;99.90;;;;;;5010981;28;20198;-84
2022/05/02 01:24:36;;;;;;;2.30;2.10;;;8.70;99.90;;;;;;5011649;28;20594;-84
2022/05/02 01:27:05;;;;;;;2.47;2.07;;;8.70;99.90;;;;;;5026089;28;20214;-85
2022/05/02 01:29:33;;;;;;;2.90;2.47;;;8.60;99.90;;;;;;5028717;28;20285;-84
2022/05/02 01:32:00;;;;;;;2.33;2.13;;;8.60;99.90;;;;;;4998958;28;20218;-84
2022/05/02 01:34:28;;;;;;;3.53;2.50;;;8.50;99.90;;;;;;5022074;28;20219;-84
2022/05/02 01:36:56;;;;;;;3.87;2.30;;;8.50;99.90;;;;;;5029336;28;20243;-84
2022/05/02 01:39:24;;;;;;;4.90;2.40;;;8.50;99.90;;;;;;5012441;28;20917;-85
2022/05/02 01:41:51;;;;;;;3.27;2.30;;;8.40;99.90;;;;;;5004114;28;20295;-85
2022/05/02 01:44:18;;;;;;;5.03;3.07;;;8.30;99.90;;;;;;5030084;28;20216;-84
2022/05/02 01:46:45;;;;;;;3.77;2.40;;;8.20;99.90;;;;;;4999615;28;20200;-84
2022/05/02 01:49:12;;;;;;;2.70;2.50;;;8.10;99.90;;;;;;5010895;28;20199;-85
2022/05/02 01:51:40;;;;;;;3.73;2.90;;;8.10;99.90;;;;;;5009656;28;20225;-85
2022/05/02 01:54:07;;;;;;;2.63;2.43;;;8.10;99.90;;;;;;5029442;28;20212;-85
2022/05/02 01:56:35;;;;;;;2.27;2.17;;;8.10;99.90;;;;;;5011160;28;20230;-85
2022/05/02 01:59:02;;;;;;;4.80;2.80;;;8.00;99.90;;;;;;5026194;28;20235;-85
2022/05/02 02:01:29;;;;;;;4.17;2.77;;;7.80;99.90;;;;;;5028675;28;20200;-85
2022/05/02 02:03:56;;;;;;;3.27;2.37;;;7.50;99.90;;;;;;4994765;28;20212;-85
2022/05/02 02:06:22;;;;;;;2.73;2.53;;;7.80;99.90;;;;;;5016200;28;20207;-84
2022/05/02 02:08:50;;;;;;;4.90;3.13;;;7.80;99.90;;;;;;5035046;28;20198;-84
2022/05/02 02:11:17;;;;;;;3.27;2.70;;;7.70;99.90;;;;;;5006609;28;20200;-84
2022/05/02 02:13:46;;;;;;;2.90;2.60;;;7.70;99.90;;;;;;5026809;28;20223;-84
2022/05/02 02:16:13;;;;;;;3.83;2.93;;;7.70;99.90;;;;;;5010718;28;20228;-84
2022/05/02 02:18:42;;;;;;;3.23;2.60;;;7.70;99.90;;;;;;5000115;28;20213;-85
2022/05/02 02:21:10;;;;;;;2.97;2.47;;;7.60;99.90;;;;;;5023319;28;20995;-84
2022/05/02 02:23:38;;;;;;;2.70;2.50;;;7.60;99.90;;;;;;5009699;28;20704;-85
2022/05/02 02:26:06;;;;;;;3.63;2.73;;;7.50;99.90;;;;;;5029833;28;20224;-84
2022/05/02 02:28:34;;;;;;;3.47;2.80;;;7.50;99.90;;;;;;5016241;28;20188;-84
2022/05/02 02:31:02;;;;;;;3.60;2.53;;;7.40;99.90;;;;;;5016203;28;20279;-84
2022/05/02 02:33:29;;;;;;;4.07;2.63;;;7.40;99.90;;;;;;5030975;28;20595;-84
2022/05/02 02:35:59;;;;;;;3.37;2.37;;;7.40;99.90;;;;;;5016553;28;20275;-83
2022/05/02 02:38:26;;;;;;;2.97;2.70;;;7.40;99.90;;;;;;5028293;28;20269;-84
2022/05/02 02:40:53;;;;;;;3.03;2.77;;;7.40;99.90;;;;;;5026019;28;20880;-84
2022/05/02 02:43:20;;;;;;;3.30;3.00;;;7.40;99.90;;;;;;5024777;28;20584;-84
2022/05/02 02:45:47;;;;;;;5.27;2.53;;;7.30;99.90;;;;;;5000582;28;20273;-84
2022/05/02 02:48:17;;;;;;;3.90;3.03;;;;;;;;;;5010774;28;20212;-84
2022/05/02 02:50:43;;;;;;;4.37;2.97;;;7.10;99.90;;;;;;4997453;28;20208;-84
2022/05/02 02:53:10;;;;;;;3.87;3.00;;;7.00;99.90;;;;;;5033041;28;20271;-84
2022/05/02 02:55:38;;;;;;;2.90;2.60;;;7.00;99.90;;;;;;5020641;28;20214;-84
2022/05/02 02:58:05;;;;;;;2.87;2.50;;;7.00;99.90;;;;;;5024615;28;20868;-84
2022/05/02 03:00:32;;;;;;;4.30;3.00;;;7.00;99.90;;;;;;5031108;28;20204;-83
2022/05/02 03:02:59;;;;;;;6.63;3.03;;;7.00;99.90;;;;;;5009075;28;20204;-83
2022/05/02 03:08:12;;;;;;;3.17;2.73;;;6.90;99.90;;;;;;5028975;28;20203;-84
2022/05/02 03:10:39;;;;;;;3.20;2.90;;;7.00;99.90;;;;;;5027629;28;20575;-84
2022/05/02 03:13:07;;;;;;;3.30;3.00;;;6.90;99.90;;;;;;5004997;28;20244;-83
2022/05/02 03:15:34;;;;;;;3.90;3.17;;;6.80;99.90;;;;;;5010697;28;20224;-84
2022/05/02 03:18:01;;;;;;;2.70;2.50;;;6.80;99.90;;;;;;5027918;28;20212;-84
2022/05/02 03:20:29;;;;;;;7.47;2.83;;;6.70;99.90;;;;;;4999412;28;20214;-84
2022/05/02 03:22:56;;;;;;;4.13;2.80;;;6.70;99.90;;;;;;5007392;28;20195;-84
2022/05/02 03:25:23;;;;;;;8.17;3.50;;;6.60;99.90;;;;;;5033479;28;20715;-83
2022/05/02 03:27:50;;;;;;;5.53;3.03;;;6.50;99.90;;;;;;5019138;28;20203;-83
2022/05/02 03:30:17;;;;;;;3.53;3.23;;;6.50;99.90;;;;;;5018358;28;20214;-83
2022/05/02 03:32:44;;;;;;;3.70;2.80;;;6.50;99.90;;;;;;5007320;28;20212;-83
2022/05/02 03:35:11;;;;;;;5.53;2.70;;;6.50;99.90;;;;;;5026571;28;20630;-83
2022/05/02 03:37:39;;;;;;;3.37;3.07;;;6.60;99.90;;;;;;5016048;28;20215;-84
2022/05/02 03:40:08;;;;;;;3.70;3.00;;;6.60;99.90;;;;;;5045255;28;20196;-84
2022/05/02 03:42:36;;;;;;;3.57;2.80;;;6.60;99.90;;;;;;5009339;28;20238;-83
2022/05/02 03:45:04;;;;;;;4.20;2.83;;;6.70;99.90;;;;;;5019711;28;20918;-83
2022/05/02 03:47:30;;;;;;;4.07;3.23;;;6.50;99.90;;;;;;5009898;28;20202;-83
2022/05/02 03:49:57;;;;;;;3.30;3.00;;;6.50;99.90;;;;;;5007654;28;20238;-84
2022/05/02 03:52:24;;;;;;;8.27;3.53;;;6.40;99.90;;;;;;5016977;28;20203;-84
2022/05/02 03:54:53;;;;;;;5.23;3.53;;;6.40;99.90;;;;;;5024061;28;20488;-84
2022/05/02 03:57:19;;;;;;;5.27;3.07;;;6.30;99.90;;;;;;5026816;28;20215;-84
2022/05/02 03:59:47;;;;;;;4.30;3.23;;;6.30;99.90;;;;;;5015569;28;20213;-84
2022/05/02 04:02:14;;;;;;;6.27;3.10;;;6.30;99.90;;;;;;5010798;28;20192;-84
2022/05/02 04:04:41;;;;;;;2.77;2.57;;;6.30;99.90;;;;;;5008780;28;20223;-84
2022/05/02 04:07:08;;;;;;;3.97;3.57;;;6.30;99.90;;;;;;4997614;28;20298;-84
2022/05/02 04:09:35;;;;;;;3.53;3.23;;;6.20;99.90;;;;;;5012228;28;20204;-84
2022/05/02 04:12:04;;;;;;;3.63;3.33;;;6.20;99.90;;;;;;5019301;28;20223;-84
2022/05/02 04:14:31;;;;;;;4.43;3.20;;;6.10;99.90;;;;;;5015262;28;20232;-84
2022/05/02 04:16:58;;;;;;;4.40;3.30;;;6.10;99.90;;;;;;5025620;28;20699;-84
2022/05/02 04:19:25;;;;;;;3.53;3.23;;;6.20;99.90;;;;;;4999780;28;20220;-84
2022/05/02 04:21:51;;;;;;;4.73;3.20;;;6.10;99.90;;;;;;5009634;28;20196;-84
2022/05/02 04:24:18;;;;;;;4.07;3.43;;;6.10;99.90;;;;;;5015181;28;20254;-84
2022/05/02 04:26:45;;;;;;;4.27;3.40;;;6.10;99.90;;;;;;5021332;28;20210;-83
2022/05/02 04:29:13;;;;;;;4.53;3.83;;;6.00;99.90;;;;;;5021908;28;20902;-84
2022/05/02 04:31:40;;;;;;;3.30;2.90;;;6.10;99.90;;;;;;5010572;28;20217;-84
2022/05/02 04:34:06;;;;;;;7.03;3.27;;;6.00;99.90;;;;;;5018346;28;20232;-84
2022/05/02 04:36:33;;;;;;;5.63;3.60;;;6.10;99.90;;;;;;5020488;28;20223;-84
2022/05/02 04:39:00;;;;;;;3.50;3.20;;;6.10;99.90;;;;;;4995870;28;20690;-84
2022/05/02 04:41:29;;;;;;;3.70;3.40;;;6.10;99.90;;;;;;5022639;28;20188;-84
2022/05/02 04:43:56;;;;;;;4.77;3.70;;;6.10;99.90;;;;;;5026080;28;20204;-84
2022/05/02 04:46:26;;;;;;;3.87;3.27;;;6.10;99.90;;;;;;5002336;28;20284;-84
2022/05/02 04:48:53;;;;;;;3.73;3.33;;;6.10;99.90;;;;;;5003803;28;20212;-84
2022/05/02 04:51:21;;;;;;;5.23;3.80;;;6.10;99.90;;;;;;5002208;28;20196;-84
2022/05/02 04:53:48;;;;;;;3.80;3.40;;;6.10;99.90;;;;;;4999283;28;20725;-84
2022/05/02 04:56:14;;;;;;;6.83;4.50;;;6.10;99.90;;;;;;5029428;28;20290;-85
2022/05/02 04:58:41;;;;;;;5.37;3.60;;;6.10;99.90;;;;;;5031007;28;20203;-83
2022/05/02 05:01:09;;;;;;;5.63;4.40;;;6.10;99.90;;;;;;5019159;28;20200;-84
2022/05/02 05:03:37;;;;;;;4.23;3.83;;;6.20;99.90;;;;;;5028025;28;20212;-84
2022/05/02 05:06:04;;;;;;;5.43;4.20;;;6.20;99.90;;;;;;5023058;28;20204;-82
2022/05/02 05:08:31;;;;;;;6.53;3.63;;;6.20;99.90;;;;;;5027647;28;20189;-84
2022/05/02 05:11:24;;;;;;;5.27;3.83;;;6.30;99.90;;;;;;5018565;28;20223;-86
2022/05/02 05:16:56;;;;;;;5.57;4.43;;;6.30;99.90;;;;;;5021774;28;20304;-84
2022/05/02 05:19:54;;;;;;;7.13;4.50;;;6.40;99.90;;;;;;5010337;28;20203;-83
2022/05/02 05:22:39;;;;;;;5.77;4.43;;;6.40;99.90;;;;;;5026800;28;20207;-84
2022/05/02 05:25:35;;;;;;;7.73;4.70;;;6.50;99.90;;;;;;5019203;28;20578;-83
2022/05/02 05:28:20;;;;;;;6.47;4.67;;;6.50;99.90;;;;;;5019083;28;20227;-83
2022/05/02 05:30:50;;;;;;;6.87;5.00;;;6.70;99.90;;;;;;5025308;28;20192;-83
2022/05/02 05:33:25;;;;;;;6.10;4.90;;;6.80;99.90;;;;;;5021327;28;20295;-84
2022/05/02 05:36:10;;;;;;;7.13;4.40;;;6.80;99.90;;;;;;5012855;28;20261;-83
2022/05/02 05:38:40;;;;;;;4.43;4.03;;;6.90;99.90;;;;;;5028014;28;20239;-84
2022/05/02 05:41:20;;;;;;;5.37;4.27;;;7.00;99.90;;;;;;5013487;28;20211;-83
2022/05/02 05:43:59;;;;;;;6.33;4.97;;;7.20;99.90;;;;;;5018866;28;20227;-84
2022/05/02 05:46:49;;;;;;;6.30;4.00;;;7.30;99.90;;;;;;5020641;28;20204;-83
2022/05/02 05:49:29;;;;;;;6.90;4.60;;;7.40;99.90;;;;;;4998845;28;20206;-83
2022/05/02 05:52:07;;;;;;;5.67;4.17;;;7.50;99.90;;;;;;5023618;28;20452;-83
2022/05/02 05:54:42;;;;;;;6.03;4.80;;;7.60;99.90;;;;;;5020353;28;20234;-83
2022/05/02 05:57:26;;;;;;;5.20;3.93;;;7.70;99.90;;;;;;5010706;28;20259;-84
2022/05/02 06:00:06;;;;;;;7.33;4.70;;;7.90;99.90;;;;;;5025152;28;20859;-84
2022/05/02 06:02:47;;;;;;;4.77;3.30;;;8.00;99.90;;;;;;5024919;28;20204;-82
2022/05/02 06:05:24;;;;;;;4.00;3.50;;;8.20;99.90;;;;;;5025234;28;20223;-84
2022/05/02 06:07:53;;;;;;;4.47;3.90;;;8.40;99.90;;;;;;5023316;28;20242;-83
2022/05/02 06:10:20;;;;;;;3.70;3.20;;;8.60;99.90;;;;;;5030056;28;20584;-83
2022/05/02 06:12:50;;;;;;;6.70;3.23;;;8.60;99.90;;;;;;5007735;28;20836;-83
2022/05/02 06:20:54;;;;;;;4.10;3.30;;;8.90;99.90;;;;;;5019926;28;20199;-84
2022/05/02 06:23:25;;;;;;;4.97;2.57;;;9.10;99.90;;;;;;5030218;28;20724;-84
2022/05/02 06:25:54;;;;;;;4.53;2.60;;;9.30;99.90;;;;;;5021439;28;20192;-83
2022/05/02 06:28:27;;;;;;;2.87;2.03;;;9.40;99.90;;;;;;5018775;28;20742;-83
2022/05/02 06:30:57;;;;;;;5.33;2.40;;;9.50;99.90;;;;;;5003772;28;20196;-83
2022/05/02 06:33:24;;;;;;;2.93;2.60;;;9.70;99.90;;;;;;5033731;28;21025;-84
2022/05/02 06:36:04;;;;;;;2.30;1.67;;;9.80;99.90;;;;;;5005726;28;20239;-85
2022/05/02 06:38:45;;;;;;;2.57;2.20;;;10.00;99.90;;;;;;5012750;28;20273;-84
2022/05/02 06:41:24;;;;;;;2.07;1.87;;;10.00;99.90;;;;;;4998383;28;20227;-85
2022/05/02 06:44:01;;;;;;;1.97;1.67;;;10.20;99.90;;;;;;5016351;28;20215;-85
2022/05/02 06:46:34;;;;;;;2.30;1.10;;;10.40;99.90;;;;;;5022294;28;20214;-84
2022/05/02 06:49:04;;;;;;;1.10;1.00;;;10.50;99.90;;;;;;5019932;28;20311;-85
2022/05/02 06:51:36;;;;;;;3.40;1.10;;;10.70;99.90;;;;;;5009934;28;20208;-85
2022/05/02 06:54:26;;;;;;;1.63;1.10;;;10.80;99.90;;;;;;5007651;28;20216;-83
2022/05/02 06:57:01;;;;;;;2.13;1.27;;;10.90;99.90;;;;;;4995060;28;20192;-83
2022/05/02 06:59:38;;;;;;;2.40;1.50;;;11.10;99.90;;;;;;5018308;28;20207;-83
2022/05/02 07:02:20;;;;;;;4.33;1.10;;;11.20;99.90;;;;;;5019984;28;20218;-83
2022/05/02 07:04:51;;;;;;;1.67;1.30;;;11.30;99.90;;;;;;5013261;28;20227;-83
2022/05/02 07:07:37;;;;;;;1.73;1.40;;;11.40;99.90;;;;;;5019893;28;20357;-84
2022/05/02 07:10:08;;;;;;;2.87;1.10;;;11.40;99.90;;;;;;5022349;28;20590;-84
2022/05/02 07:12:41;;;;;;;1.80;1.33;;;11.50;99.90;;;;;;5027549;28;20196;-84
2022/05/02 07:15:13;;;;;;;1.77;1.00;;;11.50;99.90;;;;;;4999885;28;20211;-84
2022/05/02 07:17:57;;;;;;;1.50;1.40;;;11.60;99.90;;;;;;5026262;28;20220;-84
2022/05/02 07:20:29;;;;;;;5.53;1.30;;;11.70;99.90;;;;;;5038244;28;20210;-85
2022/05/02 07:23:24;;;;;;;2.73;1.40;;;11.80;99.10;;;;;;5021545;28;20210;-85
2022/05/02 07:26:03;;;;;;;2.73;1.33;;;11.90;98.10;;;;;;5026549;28;20195;-85
2022/05/02 07:28:36;;;;;;;3.03;1.50;;;12.00;97.80;;;;;;5012927;28;20594;-84
2022/05/02 07:31:05;;;;;;;2.33;1.63;;;12.00;98.20;;;;;;5015658;28;20204;-85
2022/05/02 07:33:37;;;;;;;2.80;1.40;;;12.00;98.10;;;;;;5008756;28;20704;-85
2022/05/02 07:36:04;;;;;;;1.50;1.33;;;;;;;;;;5018402;28;20203;-85
2022/05/02 07:38:33;;;;;;;2.37;1.70;;;12.10;96.40;;;;;;5016613;28;20220;-84
2022/05/02 07:43:50;;;;;;;2.00;1.90;;;12.20;95.00;;;;;;5020263;28;20220;-83
2022/05/02 07:46:20;;;;;;;2.87;1.90;;;12.30;95.00;;;;;;5015071;28;20276;-84
2022/05/02 07:48:50;;;;;;;4.23;1.87;;;12.40;94.30;;;;;;5016086;28;20207;-84
2022/05/02 07:51:17;;;;;;;2.33;1.80;;;12.50;94.40;;;;;;5020478;28;20207;-83
2022/05/02 07:53:45;;;;;;;2.13;1.90;;;12.60;94.10;;;;;;5001459;28;20305;-84
2022/05/02 07:56:15;;;;;;;3.13;2.73;;;12.60;93.40;;;;;;5018856;28;20672;-83
2022/05/02 07:58:42;;;;;;;4.27;2.40;;;12.70;93.30;;;;;;5025427;28;20225;-84
2022/05/02 08:01:09;;;;;;;2.60;2.40;;;12.80;92.40;;;;;;5014225;28;20235;-84
2022/05/02 08:03:36;;;;;;;2.43;1.83;;;12.80;91.40;;;;;;4995018;28;20228;-83
2022/05/02 08:06:16;;;;;;;3.87;2.20;;;12.90;91.00;;;;;;5020595;28;20208;-82
2022/05/02 08:08:52;;;;;;;2.80;2.60;;;12.90;90.80;;;;;;5011367;28;20456;-83
2022/05/02 08:11:28;;;;;;;5.37;2.90;;;13.00;90.50;;;;;;5018261;28;20203;-83
2022/05/02 08:14:05;;;;;;;4.17;2.53;;;13.10;89.80;;;;;;5008040;28;20223;-85
2022/05/02 08:16:35;;;;;;;2.80;2.60;;;13.10;90.30;;;;;;5009512;28;20235;-82
2022/05/02 08:19:18;;;;;;;5.60;3.50;;;13.20;89.20;;;;;;5023311;28;20223;-84
2022/05/02 08:21:51;;;;;;;4.07;3.20;;;13.20;87.30;;;;;;5018967;28;20454;-84
2022/05/02 08:27:38;;;;;;;4.10;2.70;;;13.20;86.90;;;;;;5019717;28;20656;-82
2022/05/02 08:30:07;;;;;;;4.37;3.10;;;;;;;;;;5027301;28;20359;-84
2022/05/02 08:32:42;;;;;;;3.47;3.17;;;13.50;99.90;;;;;;5003479;28;20859;-81
2022/05/02 08:35:12;;;;;;;3.73;3.00;;;13.50;82.90;;;;;;5022918;28;20565;-82
2022/05/02 08:37:56;;;;;;;4.97;3.30;;;13.50;83.50;;;;;;5029159;28;20222;-82
2022/05/02 08:41:07;;;;;;;4.10;3.03;;;13.50;81.50;;;;;;5017584;28;20290;-81
2022/05/02 08:43:55;;;;;;;3.20;2.90;;;13.50;81.10;;;;;;5014158;28;20268;-82
2022/05/02 08:47:01;;;;;;;3.40;2.93;;;13.60;81.80;;;;;;5002028;28;20206;-83
2022/05/02 08:50:08;;;;;;;4.30;2.90;;;13.70;79.20;;;;;;5041750;28;20582;-82
2022/05/02 08:53:03;;;;;;;4.37;3.37;;;13.70;79.20;;;;;;5023560;28;20234;-82
2022/05/02 08:55:46;;;;;;;4.60;3.37;;;13.90;78.10;;;;;;4995746;28;20216;-81
2022/05/02 08:58:49;;;;;;;4.27;2.93;;;13.80;79.30;;;;;;5019968;28;20203;-84
2022/05/02 09:02:03;;;;;;;3.53;3.23;;;13.70;77.40;;;;;;5025903;28;20191;-82
2022/05/02 09:04:57;;;;;;;3.13;2.83;;;13.70;77.50;;;;;;4951890;28;20260;-82
2022/05/02 09:08:06;;;;;;;5.47;3.43;;;13.80;78.10;;;;;;5023973;28;20574;-83
2022/05/02 09:10:55;;;;;;;3.87;3.20;;;13.90;77.40;;;;;;5015839;28;20675;-83
2022/05/02 09:13:57;;;;;;;4.00;3.57;;;14.00;76.50;;;;;;5018639;28;20232;-82
2022/05/02 09:17:01;;;;;;;4.53;3.40;;;13.90;76.80;;;;;;5028811;28;20211;-82
2022/05/02 09:19:49;;;;;;;3.87;3.30;;;;;;;;;;5006124;28;20226;-82
2022/05/02 09:22:31;;;;;;;4.00;3.00;;;;;;;;;;5019638;28;20192;-82
2022/05/02 09:25:05;;;;;;;4.03;3.63;;;14.20;74.40;;;;;;5026178;28;20236;-82
2022/05/02 09:27:38;;;;;;;4.03;3.63;;;14.20;74.70;;;;;;5024136;28;20202;-80
2022/05/02 09:30:44;;;;;;;4.07;3.67;;;14.10;74.50;;;;;;5041093;28;20227;-80
2022/05/02 09:33:30;;;;;;;5.40;4.53;;;14.10;75.40;;;;;;5026016;28;20763;-81
2022/05/02 09:36:24;;;;;;;7.27;5.07;;;14.20;74.40;;;;;;5030937;28;20204;-82
2022/05/02 09:38:54;;;;;;;5.10;4.60;;;14.30;75.10;;;;;;5016435;28;20323;-80
2022/05/02 09:41:46;;;;;;;7.27;4.30;;;14.20;74.70;;;;;;5028925;28;20228;-79
2022/05/02 09:50:35;;;;;;;5.03;4.60;;;14.30;74.90;;;;;;5025330;28;20222;-78
2022/05/02 09:53:05;;;;;;;4.30;3.83;;;14.40;75.80;;;;;;5031533;28;20204;-78
2022/05/02 09:58:47;;;;;;;4.60;4.20;;;;;;;;;;5002966;28;20224;-81
2022/05/02 10:01:24;;;;;;;9.73;4.47;;;14.70;75.30;;;;;;5030865;28;20203;-81
2022/05/02 10:04:29;;;;;;;5.20;4.33;;;14.70;74.20;;;;;;5031269;28;20676;-81
2022/05/02 10:07:04;;;;;;;7.30;4.90;;;14.60;73.30;;;;;;5023101;28;20216;-81
2022/05/02 10:09:45;;;;;;;4.53;4.13;;;14.70;73.80;;;;;;5030500;28;20238;-80
2022/05/02 10:12:27;;;;;;;6.13;5.20;;;14.70;73.70;;;;;;5034511;28;20275;-81
2022/05/02 10:15:33;;;;;;;7.33;4.90;;;14.50;73.20;;;;;;5029283;28;20223;-81
2022/05/02 10:18:34;;;;;;;5.20;4.73;;;14.50;73.60;;;;;;4960011;28;20201;-80
2022/05/02 10:21:11;;;;;;;6.50;4.47;;;14.40;74.50;;;;;;5020867;28;20670;-81
2022/05/02 10:24:02;;;;;;;4.93;4.07;;;14.60;75.20;;;;;;5040601;28;20219;-80
2022/05/02 10:26:37;;;;;;;6.20;4.07;;;14.80;72.90;;;;;;5033302;28;20224;-80
2022/05/02 10:29:34;;;;;;;4.50;4.07;;;14.90;73.00;;;;;;5025692;28;20683;-82
2022/05/02 10:32:04;;;;;;;5.77;4.47;;;14.70;74.90;;;;;;5027896;28;20277;-81
2022/05/02 10:34:33;;;;;;;5.33;4.23;;;14.70;73.60;;;;;;5028718;28;20318;-81
2022/05/02 10:37:04;;;;;;;7.00;4.70;;;14.70;73.90;;;;;;5020638;28;20200;-81
2022/05/02 10:39:40;;;;;;;4.83;4.43;;;14.80;73.50;;;;;;5021067;28;20684;-80
2022/05/02 10:42:10;;;;;;;8.30;5.13;;;15.00;71.50;;;;;;5032385;28;20203;-81
2022/05/02 10:44:48;;;;;;;4.67;4.17;;;15.00;72.90;;;;;;5009775;28;20220;-82
2022/05/02 10:47:20;;;;;;;4.97;4.57;;;15.10;71.30;;;;;;5025472;28;20922;-82
2022/05/02 10:50:03;;;;;;;4.93;4.53;;;15.20;71.60;;;;;;5023667;28;20668;-80
2022/05/02 10:52:48;;;;;;;6.20;5.00;;;15.30;71.20;;;;;;5028289;28;20612;-80
2022/05/02 10:55:21;;;;;;;5.20;4.03;;;15.40;70.70;;;;;;5027318;28;20188;-80
2022/05/02 10:57:53;;;;;;;6.23;4.50;;;15.40;70.80;;;;;;5027802;28;20204;-80
2022/05/02 11:00:20;;;;;;;4.07;3.77;;;15.50;71.50;;;;;;5016609;28;20575;-79
2022/05/02 11:03:01;;;;;;;5.27;4.67;;;16.40;71.30;;;;;;5027446;28;20544;-80
2022/05/02 11:05:32;;;;;;;4.97;4.50;;;15.50;71.10;;;;;;5022453;28;20384;-80
2022/05/02 11:08:07;;;;;;;4.50;4.10;;;15.30;70.50;;;;;;5025110;28;20203;-80
2022/05/02 11:10:43;;;;;;;4.83;4.33;;;15.30;70.40;;;;;;5022621;28;20359;-79
2022/05/02 11:13:20;;;;;;;5.00;4.53;;;15.30;72.10;;;;;;5027923;28;20295;-78
2022/05/02 11:16:03;;;;;;;6.93;4.57;;;15.50;72.80;;;;;;5039467;28;20613;-78
2022/05/02 11:21:39;;;;;;;4.37;4.07;;;15.60;86.60;;;;;;5007289;28;20361;-79
2022/05/02 11:24:36;;;;;;;7.80;4.50;;;15.70;79.20;;;;;;5027681;28;20214;-78
2022/05/02 11:27:17;;;;;;;5.43;4.33;;;15.90;71.70;;;;;;5037879;28;20203;-79
2022/05/02 11:29:56;;;;;;;5.00;4.60;;;16.00;73.70;;;;;;5029586;28;20215;-82
2022/05/02 11:32:37;;;;;;;5.60;5.00;;;16.10;73.00;;;;;;5036574;28;20199;-82
2022/05/02 11:35:11;;;;;;;4.70;4.30;;;16.10;70.60;;;;;;5023454;28;20226;-82
2022/05/02 11:37:47;;;;;;;4.97;4.53;;;16.00;70.00;;;;;;5043278;28;20205;-84
2022/05/02 11:40:17;;;;;;;5.57;5.07;;;16.00;68.60;;;;;;5013566;28;20227;-81
2022/05/02 11:42:47;;;;;;;5.03;4.43;;;15.90;69.30;;;;;;5001413;28;20215;-85
2022/05/02 11:45:17;;;;;;;5.73;4.67;;;16.00;69.80;;;;;;5027676;28;20227;-77
2022/05/02 11:48:07;;;;;;;6.30;5.07;;;15.90;69.50;;;;;;5024182;28;20211;-78
2022/05/02 11:50:44;;;;;;;5.00;4.57;;;16.00;68.80;;;;;;5028624;28;20187;-81
2022/05/02 11:53:13;;;;;;;8.93;4.63;;;16.00;69.00;;;;;;5034648;28;20219;-81
2022/05/02 11:55:41;;;;;;;5.57;5.07;;;16.20;70.00;;;;;;5006860;28;20200;-82
2022/05/02 11:58:26;;;;;;;5.90;5.10;;;16.50;71.10;;;;;;5014148;28;20279;-79
2022/05/02 12:01:00;;;;;;;5.50;5.00;;;16.50;70.10;;;;;;5027064;28;20261;-79
2022/05/02 12:03:27;;;;;;;8.00;5.50;;;16.50;70.50;;;;;;5006823;28;20801;-82
2022/05/02 12:05:56;;;;;;;5.33;4.83;;;16.60;70.60;;;;;;5015170;28;20222;-83
2022/05/02 12:08:26;;;;;;;4.70;4.30;;;16.50;69.00;;;;;;5027787;28;20200;-82
2022/05/02 12:11:05;;;;;;;5.57;4.80;;;16.20;69.80;;;;;;5008289;28;20230;-83
2022/05/02 12:13:36;;;;;;;5.63;4.83;;;16.30;70.50;;;;;;5016024;28;20235;-83
2022/05/02 12:16:04;;;;;;;5.90;5.30;;;16.20;69.60;;;;;;5015293;28;20223;-83
2022/05/02 12:18:42;;;;;;;6.17;4.80;;;16.10;70.20;;;;;;5005540;28;20196;-83
2022/05/02 12:21:12;;;;;;;5.50;5.00;;;16.20;70.10;;;;;;5015394;28;20322;-82
2022/05/02 12:23:42;;;;;;;5.33;4.87;;;16.20;70.20;;;;;;5018958;28;20905;-82
2022/05/02 12:26:18;;;;;;;6.83;4.70;;;16.00;69.70;;;;;;5021823;28;20212;-82
2022/05/02 12:28:48;;;;;;;6.33;4.70;;;15.90;70.20;;;;;;5033804;28;20199;-82
2022/05/02 12:31:16;;;;;;;5.63;4.87;;;16.00;70.70;;;;;;5019459;28;20300;-81
2022/05/02 12:33:44;;;;;;;5.07;4.27;;;16.30;71.30;;;;;;5013933;28;20270;-82
2022/05/02 12:36:19;;;;;;;6.53;5.60;;;16.40;71.10;;;;;;5017847;28;20242;-82
2022/05/02 12:38:55;;;;;;;6.07;4.40;;;16.60;70.60;;;;;;5017198;28;20864;-84
2022/05/02 12:41:25;;;;;;;6.27;5.07;;;16.80;70.30;;;;;;5002044;28;20208;-83
2022/05/02 12:44:00;;;;;;;5.60;5.10;;;16.80;70.50;;;;;;5026162;28;20703;-83
2022/05/02 12:46:34;;;;;;;5.33;4.93;;;16.60;69.50;;;;;;4999449;28;20579;-83
2022/05/02 12:49:05;;;;;;;8.13;5.40;;;16.40;70.30;;;;;;5024765;28;20198;-83
2022/05/02 12:51:33;;;;;;;6.20;5.17;;;16.40;69.90;;;;;;5026963;28;20196;-83
2022/05/02 12:54:12;;;;;;;5.93;5.27;;;16.50;69.60;;;;;;5035565;28;20238;-83
2022/05/02 13:00:30;;;;;;;5.73;4.73;;;16.80;70.40;;;;;;5002474;28;20254;-83
2022/05/02 13:02:33;;;;;;;6.70;5.20;;;17.10;67.90;;;;;;5011426;28;20610;-82
2022/05/02 13:05:05;;;;;;;5.10;4.60;;;17.60;84.20;;;;;;5020517;28;20231;-83
2022/05/02 13:07:38;;;;;;;8.47;4.90;;;18.20;67.10;;;;;;5035044;28;20254;-83
2022/05/02 13:10:14;;;;;;;5.50;4.70;;;18.30;64.00;;;;;;5012827;28;20200;-84
2022/05/02 13:12:57;;;;;;;6.30;4.43;;;18.20;65.00;;;;;;5014837;28;20381;-83
2022/05/02 13:15:27;;;;;;;6.00;4.97;;;18.30;64.60;;;;;;5035631;28;20295;-82
2022/05/02 13:17:58;;;;;;;5.10;4.70;;;17.90;63.80;;;;;;5022123;28;20632;-84
2022/05/02 13:20:28;;;;;;;5.30;4.47;;;17.90;64.20;;;;;;5022561;28;20232;-83
2022/05/02 13:23:04;;;;;;;6.23;4.80;;;18.40;63.60;;;;;;5018472;28;20679;-82
2022/05/02 13:26:05;;;;;;;4.53;4.07;;;18.50;63.00;;;;;;5034814;28;20275;-83
2022/05/02 13:28:39;;;;;;;4.40;4.10;;;;;;;;;;5014319;28;20215;-84
2022/05/02 13:31:16;;;;;;;5.40;4.60;;;18.90;74.80;;;;;;5003046;28;20283;-84
2022/05/02 13:33:48;;;;;;;6.07;4.50;;;19.20;62.10;;;;;;5012815;28;20619;-82
2022/05/02 13:36:15;;;;;;;6.73;4.60;;;19.20;61.50;;;;;;5002541;28;20842;-84
2022/05/02 13:38:45;;;;;;;4.47;4.07;;;19.30;62.20;;;;;;5009093;28;20204;-83
2022/05/02 13:41:24;;;;;;;4.53;4.13;;;18.90;62.50;;;;;;4999977;28;20896;-84
2022/05/02 13:44:03;;;;;;;4.33;3.93;;;18.80;62.70;;;;;;5014218;28;20226;-82
2022/05/02 13:46:52;;;;;;;6.53;4.33;;;18.70;63.70;;;;;;5025664;28;20195;-84
2022/05/02 13:49:41;;;;;;;5.73;4.50;;;19.30;59.50;;;;;;5023932;28;20204;-82
2022/05/02 13:52:24;;;;;;;4.90;4.47;;;19.30;61.30;;;;;;5023043;28;20262;-84
2022/05/02 13:54:53;;;;;;;4.63;4.30;;;19.70;57.90;;;;;;5008722;28;20270;-81
2022/05/02 13:57:42;;;;;;;4.50;4.10;;;19.40;59.50;;;;;;5032774;28;20188;-85
2022/05/02 14:03:32;;;;;;;4.80;4.37;;;20.00;59.80;;;;;;5019220;28;20890;-83